sensor_id;sensor_type;location;lat;lon;timestamp;P1;durP1;ratioP1;P2;durP2;ratioP2
22160;SDS011;49035;48.812;11.762;2022-11-25T00:00:47;6.10;;;4.70;;
22160;SDS011;49035;48.812;11.762;2022-11-25T00:03:13;7.37;;;4.83;;
22160;SDS011;49035;48.812;11.762;2022-11-25T00:05:39;6.33;;;4.50;;
22160;SDS011;49035;48.812;11.762;2022-11-25T00:08:04;11.17;;;4.67;;
22160;SDS011;49035;48.812;11.762;2022-11-25T00:10:30;5.97;;;4.53;;
22160;SDS011;49035;48.812;11.762;2022-11-25T00:12:55;8.53;;;4.70;;
22160;SDS011;49035;48.812;11.762;2022-11-25T00:15:21;6.60;;;4.43;;
22160;SDS011;49035;48.812;11.762;2022-11-25T00:17:47;5.77;;;4.30;;
22160;SDS011;49035;48.812;11.762;2022-11-25T00:20:12;6.17;;;4.37;;
22160;SDS011;49035;48.812;11.762;2022-11-25T00:22:38;5.87;;;4.40;;
22160;SDS011;49035;48.812;11.762;2022-11-25T00:25:04;5.37;;;4.17;;
22160;SDS011;49035;48.812;11.762;2022-11-25T00:27:29;5.93;;;4.50;;
22160;SDS011;49035;48.812;11.762;2022-11-25T00:29:55;8.07;;;4.40;;
22160;SDS011;49035;48.812;11.762;2022-11-25T00:32:21;5.30;;;4.50;;
22160;SDS011;49035;48.812;11.762;2022-11-25T00:34:46;6.77;;;5.03;;
22160;SDS011;49035;48.812;11.762;2022-11-25T00:37:12;6.83;;;5.30;;
22160;SDS011;49035;48.812;11.762;2022-11-25T00:39:37;5.13;;;4.13;;
22160;SDS011;49035;48.812;11.762;2022-11-25T00:42:03;5.13;;;4.03;;
22160;SDS011;49035;48.812;11.762;2022-11-25T00:44:47;4.87;;;4.10;;
22160;SDS011;49035;48.812;11.762;2022-11-25T00:47:14;6.50;;;4.97;;
22160;SDS011;49035;48.812;11.762;2022-11-25T00:49:43;6.73;;;4.53;;
22160;SDS011;49035;48.812;11.762;2022-11-25T00:52:17;7.97;;;4.70;;
22160;SDS011;49035;48.812;11.762;2022-11-25T00:54:52;7.13;;;5.27;;
22160;SDS011;49035;48.812;11.762;2022-11-25T00:57:19;6.50;;;4.80;;
22160;SDS011;49035;48.812;11.762;2022-11-25T00:59:46;8.53;;;4.97;;
22160;SDS011;49035;48.812;11.762;2022-11-25T01:02:15;6.80;;;5.40;;
22160;SDS011;49035;48.812;11.762;2022-11-25T01:04:42;6.80;;;5.30;;
22160;SDS011;49035;48.812;11.762;2022-11-25T01:07:08;7.03;;;5.30;;
22160;SDS011;49035;48.812;11.762;2022-11-25T01:09:33;6.97;;;5.13;;
22160;SDS011;49035;48.812;11.762;2022-11-25T01:11:59;7.33;;;5.70;;
22160;SDS011;49035;48.812;11.762;2022-11-25T01:14:25;7.60;;;5.47;;
22160;SDS011;49035;48.812;11.762;2022-11-25T01:16:51;11.13;;;5.87;;
22160;SDS011;49035;48.812;11.762;2022-11-25T01:19:17;8.20;;;4.97;;
22160;SDS011;49035;48.812;11.762;2022-11-25T01:21:43;8.00;;;5.50;;
22160;SDS011;49035;48.812;11.762;2022-11-25T01:24:09;6.53;;;4.93;;
22160;SDS011;49035;48.812;11.762;2022-11-25T01:26:37;11.53;;;5.73;;
22160;SDS011;49035;48.812;11.762;2022-11-25T01:29:04;25.30;;;6.93;;
22160;SDS011;49035;48.812;11.762;2022-11-25T01:31:32;10.03;;;5.57;;
22160;SDS011;49035;48.812;11.762;2022-11-25T01:34:00;9.57;;;5.77;;
22160;SDS011;49035;48.812;11.762;2022-11-25T01:36:27;17.37;;;6.03;;
22160;SDS011;49035;48.812;11.762;2022-11-25T01:38:54;9.70;;;6.23;;
22160;SDS011;49035;48.812;11.762;2022-11-25T01:41:22;10.87;;;6.33;;
22160;SDS011;49035;48.812;11.762;2022-11-25T01:44:08;10.50;;;6.00;;
22160;SDS011;49035;48.812;11.762;2022-11-25T01:49:32;9.97;;;6.77;;
22160;SDS011;49035;48.812;11.762;2022-11-25T01:54:42;20.03;;;7.00;;
22160;SDS011;49035;48.812;11.762;2022-11-25T01:57:23;8.83;;;6.10;;
22160;SDS011;49035;48.812;11.762;2022-11-25T01:59:52;9.40;;;6.30;;
22160;SDS011;49035;48.812;11.762;2022-11-25T02:02:21;7.20;;;6.30;;
22160;SDS011;49035;48.812;11.762;2022-11-25T02:04:47;8.67;;;6.70;;
22160;SDS011;49035;48.812;11.762;2022-11-25T02:07:17;7.90;;;5.87;;
22160;SDS011;49035;48.812;11.762;2022-11-25T02:09:53;7.30;;;6.10;;
22160;SDS011;49035;48.812;11.762;2022-11-25T02:12:20;9.67;;;6.63;;
22160;SDS011;49035;48.812;11.762;2022-11-25T02:14:47;8.70;;;5.87;;
22160;SDS011;49035;48.812;11.762;2022-11-25T02:17:15;9.10;;;5.70;;
22160;SDS011;49035;48.812;11.762;2022-11-25T02:22:18;7.57;;;5.40;;
22160;SDS011;49035;48.812;11.762;2022-11-25T02:24:52;7.27;;;5.57;;
22160;SDS011;49035;48.812;11.762;2022-11-25T02:27:25;9.87;;;6.30;;
22160;SDS011;49035;48.812;11.762;2022-11-25T02:29:51;10.40;;;6.13;;
22160;SDS011;49035;48.812;11.762;2022-11-25T02:32:20;11.70;;;6.03;;
22160;SDS011;49035;48.812;11.762;2022-11-25T02:34:47;8.93;;;5.90;;
22160;SDS011;49035;48.812;11.762;2022-11-25T02:37:13;9.20;;;5.87;;
22160;SDS011;49035;48.812;11.762;2022-11-25T02:39:41;8.47;;;6.37;;
22160;SDS011;49035;48.812;11.762;2022-11-25T02:42:07;7.70;;;5.50;;
22160;SDS011;49035;48.812;11.762;2022-11-25T02:44:33;8.67;;;5.57;;
22160;SDS011;49035;48.812;11.762;2022-11-25T02:46:59;7.30;;;5.73;;
22160;SDS011;49035;48.812;11.762;2022-11-25T02:49:24;6.97;;;4.97;;
22160;SDS011;49035;48.812;11.762;2022-11-25T02:51:50;7.47;;;5.87;;
22160;SDS011;49035;48.812;11.762;2022-11-25T02:54:15;7.07;;;5.50;;
22160;SDS011;49035;48.812;11.762;2022-11-25T02:56:41;7.53;;;5.60;;
22160;SDS011;49035;48.812;11.762;2022-11-25T02:59:06;8.83;;;5.47;;
22160;SDS011;49035;48.812;11.762;2022-11-25T03:01:32;9.23;;;6.07;;
22160;SDS011;49035;48.812;11.762;2022-11-25T03:03:59;7.83;;;5.63;;
22160;SDS011;49035;48.812;11.762;2022-11-25T03:06:25;8.17;;;5.43;;
22160;SDS011;49035;48.812;11.762;2022-11-25T03:08:51;10.73;;;5.83;;
22160;SDS011;49035;48.812;11.762;2022-11-25T03:11:16;12.00;;;5.53;;
22160;SDS011;49035;48.812;11.762;2022-11-25T03:13:42;7.90;;;5.27;;
22160;SDS011;49035;48.812;11.762;2022-11-25T03:16:07;9.93;;;6.97;;
22160;SDS011;49035;48.812;11.762;2022-11-25T03:18:33;10.17;;;6.57;;
22160;SDS011;49035;48.812;11.762;2022-11-25T03:20:59;8.43;;;6.10;;
22160;SDS011;49035;48.812;11.762;2022-11-25T03:23:25;10.03;;;6.50;;
22160;SDS011;49035;48.812;11.762;2022-11-25T03:25:51;9.17;;;6.20;;
22160;SDS011;49035;48.812;11.762;2022-11-25T03:28:16;10.67;;;6.47;;
22160;SDS011;49035;48.812;11.762;2022-11-25T03:30:42;8.37;;;5.63;;
22160;SDS011;49035;48.812;11.762;2022-11-25T03:33:07;9.97;;;5.87;;
22160;SDS011;49035;48.812;11.762;2022-11-25T03:35:33;18.17;;;7.00;;
22160;SDS011;49035;48.812;11.762;2022-11-25T03:37:58;9.40;;;6.13;;
22160;SDS011;49035;48.812;11.762;2022-11-25T03:40:24;7.83;;;6.03;;
22160;SDS011;49035;48.812;11.762;2022-11-25T03:42:50;7.00;;;5.53;;
22160;SDS011;49035;48.812;11.762;2022-11-25T03:45:16;8.37;;;5.73;;
22160;SDS011;49035;48.812;11.762;2022-11-25T03:47:42;17.90;;;7.00;;
22160;SDS011;49035;48.812;11.762;2022-11-25T03:50:08;12.23;;;7.00;;
22160;SDS011;49035;48.812;11.762;2022-11-25T03:52:35;13.97;;;6.50;;
22160;SDS011;49035;48.812;11.762;2022-11-25T03:55:01;8.27;;;5.67;;
22160;SDS011;49035;48.812;11.762;2022-11-25T03:57:28;8.77;;;5.80;;
22160;SDS011;49035;48.812;11.762;2022-11-25T03:59:54;10.83;;;6.83;;
22160;SDS011;49035;48.812;11.762;2022-11-25T04:02:19;9.47;;;6.20;;
22160;SDS011;49035;48.812;11.762;2022-11-25T04:04:45;9.57;;;7.00;;
22160;SDS011;49035;48.812;11.762;2022-11-25T04:07:10;10.30;;;6.70;;
22160;SDS011;49035;48.812;11.762;2022-11-25T04:09:36;21.90;;;7.27;;
22160;SDS011;49035;48.812;11.762;2022-11-25T04:12:02;11.20;;;6.90;;
22160;SDS011;49035;48.812;11.762;2022-11-25T04:14:46;7.97;;;6.30;;
22160;SDS011;49035;48.812;11.762;2022-11-25T04:17:12;10.80;;;6.67;;
22160;SDS011;49035;48.812;11.762;2022-11-25T04:19:37;11.37;;;6.67;;
22160;SDS011;49035;48.812;11.762;2022-11-25T04:22:03;21.97;;;7.30;;
22160;SDS011;49035;48.812;11.762;2022-11-25T04:24:29;11.57;;;7.23;;
22160;SDS011;49035;48.812;11.762;2022-11-25T04:26:54;18.83;;;6.93;;
22160;SDS011;49035;48.812;11.762;2022-11-25T04:29:20;13.63;;;7.30;;
22160;SDS011;49035;48.812;11.762;2022-11-25T04:31:45;9.80;;;6.80;;
22160;SDS011;49035;48.812;11.762;2022-11-25T04:34:11;13.43;;;7.37;;
22160;SDS011;49035;48.812;11.762;2022-11-25T04:36:36;10.33;;;6.90;;
22160;SDS011;49035;48.812;11.762;2022-11-25T04:39:02;11.73;;;7.10;;
22160;SDS011;49035;48.812;11.762;2022-11-25T04:41:28;9.03;;;6.57;;
22160;SDS011;49035;48.812;11.762;2022-11-25T04:43:54;7.43;;;5.57;;
22160;SDS011;49035;48.812;11.762;2022-11-25T04:46:23;19.13;;;6.73;;
22160;SDS011;49035;48.812;11.762;2022-11-25T04:48:58;11.53;;;5.83;;
22160;SDS011;49035;48.812;11.762;2022-11-25T04:51:23;15.43;;;5.63;;
22160;SDS011;49035;48.812;11.762;2022-11-25T04:53:49;29.30;;;7.03;;
22160;SDS011;49035;48.812;11.762;2022-11-25T04:56:15;21.77;;;7.50;;
22160;SDS011;49035;48.812;11.762;2022-11-25T04:58:42;9.90;;;5.93;;
22160;SDS011;49035;48.812;11.762;2022-11-25T05:01:26;9.00;;;5.90;;
22160;SDS011;49035;48.812;11.762;2022-11-25T05:03:52;11.77;;;5.47;;
22160;SDS011;49035;48.812;11.762;2022-11-25T05:06:18;11.60;;;5.63;;
22160;SDS011;49035;48.812;11.762;2022-11-25T05:08:43;13.83;;;5.50;;
22160;SDS011;49035;48.812;11.762;2022-11-25T05:11:13;12.00;;;6.20;;
22160;SDS011;49035;48.812;11.762;2022-11-25T05:13:42;14.00;;;5.57;;
22160;SDS011;49035;48.812;11.762;2022-11-25T05:16:08;26.00;;;6.00;;
22160;SDS011;49035;48.812;11.762;2022-11-25T05:18:33;7.93;;;5.70;;
22160;SDS011;49035;48.812;11.762;2022-11-25T05:21:00;12.07;;;5.50;;
22160;SDS011;49035;48.812;11.762;2022-11-25T05:23:26;7.57;;;5.20;;
22160;SDS011;49035;48.812;11.762;2022-11-25T05:25:57;9.20;;;6.30;;
22160;SDS011;49035;48.812;11.762;2022-11-25T05:28:27;7.63;;;5.87;;
22160;SDS011;49035;48.812;11.762;2022-11-25T05:30:53;14.97;;;6.47;;
22160;SDS011;49035;48.812;11.762;2022-11-25T05:33:21;10.13;;;6.60;;
22160;SDS011;49035;48.812;11.762;2022-11-25T05:35:58;8.53;;;5.97;;
22160;SDS011;49035;48.812;11.762;2022-11-25T05:38:25;8.33;;;5.80;;
22160;SDS011;49035;48.812;11.762;2022-11-25T05:40:52;14.67;;;6.13;;
22160;SDS011;49035;48.812;11.762;2022-11-25T05:43:18;13.60;;;5.40;;
22160;SDS011;49035;48.812;11.762;2022-11-25T05:45:44;10.77;;;6.00;;
22160;SDS011;49035;48.812;11.762;2022-11-25T05:48:10;8.47;;;5.63;;
22160;SDS011;49035;48.812;11.762;2022-11-25T05:50:36;14.63;;;6.33;;
22160;SDS011;49035;48.812;11.762;2022-11-25T05:53:02;18.40;;;6.30;;
22160;SDS011;49035;48.812;11.762;2022-11-25T05:55:28;9.37;;;6.23;;
22160;SDS011;49035;48.812;11.762;2022-11-25T05:57:54;14.67;;;7.07;;
22160;SDS011;49035;48.812;11.762;2022-11-25T06:00:19;12.50;;;6.60;;
22160;SDS011;49035;48.812;11.762;2022-11-25T06:02:48;13.20;;;6.90;;
22160;SDS011;49035;48.812;11.762;2022-11-25T06:05:14;13.27;;;8.03;;
22160;SDS011;49035;48.812;11.762;2022-11-25T06:07:40;10.27;;;6.97;;
22160;SDS011;49035;48.812;11.762;2022-11-25T06:10:05;17.97;;;8.43;;
22160;SDS011;49035;48.812;11.762;2022-11-25T06:12:32;18.93;;;7.47;;
22160;SDS011;49035;48.812;11.762;2022-11-25T06:14:57;11.93;;;7.97;;
22160;SDS011;49035;48.812;11.762;2022-11-25T06:17:23;13.67;;;7.50;;
22160;SDS011;49035;48.812;11.762;2022-11-25T06:19:48;12.13;;;6.93;;
22160;SDS011;49035;48.812;11.762;2022-11-25T06:22:14;14.70;;;7.17;;
22160;SDS011;49035;48.812;11.762;2022-11-25T06:24:40;12.03;;;7.33;;
22160;SDS011;49035;48.812;11.762;2022-11-25T06:27:05;11.77;;;7.83;;
22160;SDS011;49035;48.812;11.762;2022-11-25T06:29:31;13.23;;;7.80;;
22160;SDS011;49035;48.812;11.762;2022-11-25T06:31:56;11.43;;;7.57;;
22160;SDS011;49035;48.812;11.762;2022-11-25T06:34:22;16.27;;;8.60;;
22160;SDS011;49035;48.812;11.762;2022-11-25T06:36:48;18.13;;;10.37;;
22160;SDS011;49035;48.812;11.762;2022-11-25T06:39:14;20.73;;;8.73;;
22160;SDS011;49035;48.812;11.762;2022-11-25T06:41:39;20.10;;;8.53;;
22160;SDS011;49035;48.812;11.762;2022-11-25T06:44:05;16.53;;;7.93;;
22160;SDS011;49035;48.812;11.762;2022-11-25T06:46:31;25.93;;;8.77;;
22160;SDS011;49035;48.812;11.762;2022-11-25T06:48:58;22.03;;;8.53;;
22160;SDS011;49035;48.812;11.762;2022-11-25T06:51:24;15.47;;;7.47;;
22160;SDS011;49035;48.812;11.762;2022-11-25T06:53:50;14.50;;;7.77;;
22160;SDS011;49035;48.812;11.762;2022-11-25T06:56:17;15.50;;;8.00;;
22160;SDS011;49035;48.812;11.762;2022-11-25T06:58:47;14.83;;;7.53;;
22160;SDS011;49035;48.812;11.762;2022-11-25T07:01:47;18.23;;;8.07;;
22160;SDS011;49035;48.812;11.762;2022-11-25T07:04:05;13.90;;;8.37;;
22160;SDS011;49035;48.812;11.762;2022-11-25T07:06:31;12.83;;;8.60;;
22160;SDS011;49035;48.812;11.762;2022-11-25T07:08:57;17.43;;;8.37;;
22160;SDS011;49035;48.812;11.762;2022-11-25T07:11:24;18.83;;;8.87;;
22160;SDS011;49035;48.812;11.762;2022-11-25T07:13:52;13.70;;;8.30;;
22160;SDS011;49035;48.812;11.762;2022-11-25T07:16:20;14.60;;;9.13;;
22160;SDS011;49035;48.812;11.762;2022-11-25T07:18:45;15.60;;;9.20;;
22160;SDS011;49035;48.812;11.762;2022-11-25T07:21:12;20.33;;;9.63;;
22160;SDS011;49035;48.812;11.762;2022-11-25T07:23:43;25.27;;;11.43;;
22160;SDS011;49035;48.812;11.762;2022-11-25T07:26:11;21.73;;;11.97;;
22160;SDS011;49035;48.812;11.762;2022-11-25T07:28:38;23.70;;;12.73;;
22160;SDS011;49035;48.812;11.762;2022-11-25T07:31:12;18.37;;;10.67;;
22160;SDS011;49035;48.812;11.762;2022-11-25T07:33:42;20.57;;;11.03;;
22160;SDS011;49035;48.812;11.762;2022-11-25T07:36:08;19.90;;;10.10;;
22160;SDS011;49035;48.812;11.762;2022-11-25T07:38:36;16.67;;;9.67;;
22160;SDS011;49035;48.812;11.762;2022-11-25T07:41:06;22.20;;;10.77;;
22160;SDS011;49035;48.812;11.762;2022-11-25T07:43:33;19.07;;;10.27;;
22160;SDS011;49035;48.812;11.762;2022-11-25T07:46:07;20.50;;;11.10;;
22160;SDS011;49035;48.812;11.762;2022-11-25T07:48:38;24.23;;;10.60;;
22160;SDS011;49035;48.812;11.762;2022-11-25T07:51:04;24.00;;;10.30;;
22160;SDS011;49035;48.812;11.762;2022-11-25T07:53:37;15.07;;;10.10;;
22160;SDS011;49035;48.812;11.762;2022-11-25T07:56:02;19.77;;;10.90;;
22160;SDS011;49035;48.812;11.762;2022-11-25T07:58:28;18.63;;;10.27;;
22160;SDS011;49035;48.812;11.762;2022-11-25T08:00:54;17.13;;;10.27;;
22160;SDS011;49035;48.812;11.762;2022-11-25T08:03:19;20.90;;;10.70;;
22160;SDS011;49035;48.812;11.762;2022-11-25T08:05:45;18.53;;;10.53;;
22160;SDS011;49035;48.812;11.762;2022-11-25T08:08:10;19.93;;;11.07;;
22160;SDS011;49035;48.812;11.762;2022-11-25T08:10:38;23.20;;;11.67;;
22160;SDS011;49035;48.812;11.762;2022-11-25T08:13:04;18.73;;;11.37;;
22160;SDS011;49035;48.812;11.762;2022-11-25T08:15:31;21.40;;;12.07;;
22160;SDS011;49035;48.812;11.762;2022-11-25T08:17:56;27.20;;;12.73;;
22160;SDS011;49035;48.812;11.762;2022-11-25T08:20:22;27.97;;;11.83;;
22160;SDS011;49035;48.812;11.762;2022-11-25T08:22:47;21.23;;;12.03;;
22160;SDS011;49035;48.812;11.762;2022-11-25T08:25:13;23.03;;;11.20;;
22160;SDS011;49035;48.812;11.762;2022-11-25T08:27:39;22.90;;;11.73;;
22160;SDS011;49035;48.812;11.762;2022-11-25T08:30:05;21.10;;;12.00;;
22160;SDS011;49035;48.812;11.762;2022-11-25T08:32:35;22.23;;;11.23;;
22160;SDS011;49035;48.812;11.762;2022-11-25T08:35:04;21.30;;;11.63;;
22160;SDS011;49035;48.812;11.762;2022-11-25T08:37:30;18.40;;;10.77;;
22160;SDS011;49035;48.812;11.762;2022-11-25T08:39:56;17.13;;;11.40;;
22160;SDS011;49035;48.812;11.762;2022-11-25T08:42:22;14.03;;;9.43;;
22160;SDS011;49035;48.812;11.762;2022-11-25T08:44:51;18.30;;;10.97;;
22160;SDS011;49035;48.812;11.762;2022-11-25T08:47:18;22.17;;;10.83;;
22160;SDS011;49035;48.812;11.762;2022-11-25T08:49:43;19.50;;;10.43;;
22160;SDS011;49035;48.812;11.762;2022-11-25T08:52:09;15.83;;;10.73;;
22160;SDS011;49035;48.812;11.762;2022-11-25T08:54:35;16.67;;;10.13;;
22160;SDS011;49035;48.812;11.762;2022-11-25T08:57:01;14.67;;;10.10;;
22160;SDS011;49035;48.812;11.762;2022-11-25T08:59:26;17.83;;;9.80;;
22160;SDS011;49035;48.812;11.762;2022-11-25T09:01:52;17.80;;;10.67;;
22160;SDS011;49035;48.812;11.762;2022-11-25T09:04:17;15.87;;;9.80;;
22160;SDS011;49035;48.812;11.762;2022-11-25T09:06:43;19.43;;;10.13;;
22160;SDS011;49035;48.812;11.762;2022-11-25T09:09:09;16.93;;;10.03;;
22160;SDS011;49035;48.812;11.762;2022-11-25T09:11:34;16.30;;;10.03;;
22160;SDS011;49035;48.812;11.762;2022-11-25T09:14:00;14.30;;;9.77;;
22160;SDS011;49035;48.812;11.762;2022-11-25T09:16:25;15.10;;;9.80;;
22160;SDS011;49035;48.812;11.762;2022-11-25T09:18:51;16.83;;;10.63;;
22160;SDS011;49035;48.812;11.762;2022-11-25T09:21:17;20.50;;;12.30;;
22160;SDS011;49035;48.812;11.762;2022-11-25T09:23:43;19.10;;;11.47;;
22160;SDS011;49035;48.812;11.762;2022-11-25T09:26:17;18.47;;;11.13;;
22160;SDS011;49035;48.812;11.762;2022-11-25T09:28:46;19.37;;;11.77;;
22160;SDS011;49035;48.812;11.762;2022-11-25T09:31:11;24.30;;;13.67;;
22160;SDS011;49035;48.812;11.762;2022-11-25T09:33:37;23.03;;;13.80;;
22160;SDS011;49035;48.812;11.762;2022-11-25T09:36:03;24.10;;;14.07;;
22160;SDS011;49035;48.812;11.762;2022-11-25T09:38:30;25.87;;;14.77;;
22160;SDS011;49035;48.812;11.762;2022-11-25T09:41:00;25.10;;;14.50;;
22160;SDS011;49035;48.812;11.762;2022-11-25T09:43:45;22.20;;;14.53;;
22160;SDS011;49035;48.812;11.762;2022-11-25T09:52:11;20.40;;;13.67;;
22160;SDS011;49035;48.812;11.762;2022-11-25T09:55:06;24.87;;;16.00;;
22160;SDS011;49035;48.812;11.762;2022-11-25T10:00:36;20.37;;;13.40;;
22160;SDS011;49035;48.812;11.762;2022-11-25T10:05:43;18.13;;;13.40;;
22160;SDS011;49035;48.812;11.762;2022-11-25T10:08:20;19.53;;;12.50;;
22160;SDS011;49035;48.812;11.762;2022-11-25T10:10:51;20.23;;;13.27;;
22160;SDS011;49035;48.812;11.762;2022-11-25T10:13:26;20.90;;;13.93;;
22160;SDS011;49035;48.812;11.762;2022-11-25T10:15:58;22.50;;;14.63;;
22160;SDS011;49035;48.812;11.762;2022-11-25T10:18:30;27.60;;;17.67;;
22160;SDS011;49035;48.812;11.762;2022-11-25T10:21:08;21.97;;;14.77;;
22160;SDS011;49035;48.812;11.762;2022-11-25T10:23:36;21.47;;;13.37;;
22160;SDS011;49035;48.812;11.762;2022-11-25T10:26:13;18.97;;;13.97;;
22160;SDS011;49035;48.812;11.762;2022-11-25T10:28:43;19.83;;;12.90;;
22160;SDS011;49035;48.812;11.762;2022-11-25T10:31:18;15.03;;;11.83;;
22160;SDS011;49035;48.812;11.762;2022-11-25T10:33:52;16.73;;;11.70;;
22160;SDS011;49035;48.812;11.762;2022-11-25T10:36:26;14.63;;;11.10;;
22160;SDS011;49035;48.812;11.762;2022-11-25T10:39:01;14.87;;;10.70;;
22160;SDS011;49035;48.812;11.762;2022-11-25T10:41:32;14.70;;;10.73;;
22160;SDS011;49035;48.812;11.762;2022-11-25T10:44:02;12.37;;;9.33;;
22160;SDS011;49035;48.812;11.762;2022-11-25T10:46:41;11.80;;;9.40;;
22160;SDS011;49035;48.812;11.762;2022-11-25T10:49:18;12.27;;;8.93;;
22160;SDS011;49035;48.812;11.762;2022-11-25T10:51:57;12.17;;;9.40;;
22160;SDS011;49035;48.812;11.762;2022-11-25T10:54:24;11.10;;;9.35;;
22160;SDS011;49035;48.812;11.762;2022-11-25T11:01:51;8.30;;;6.63;;
22160;SDS011;49035;48.812;11.762;2022-11-25T11:04:18;9.60;;;7.00;;
22160;SDS011;49035;48.812;11.762;2022-11-25T11:06:45;10.13;;;6.90;;
22160;SDS011;49035;48.812;11.762;2022-11-25T11:14:47;10.50;;;8.30;;
22160;SDS011;49035;48.812;11.762;2022-11-25T11:17:28;9.23;;;7.53;;
22160;SDS011;49035;48.812;11.762;2022-11-25T11:22:31;8.57;;;7.23;;
22160;SDS011;49035;48.812;11.762;2022-11-25T11:25:11;10.30;;;7.90;;
22160;SDS011;49035;48.812;11.762;2022-11-25T11:27:45;9.67;;;7.20;;
22160;SDS011;49035;48.812;11.762;2022-11-25T11:32:53;9.20;;;6.93;;
22160;SDS011;49035;48.812;11.762;2022-11-25T11:41:43;9.82;;;7.43;;
22160;SDS011;49035;48.812;11.762;2022-11-25T11:43:57;10.25;;;7.07;;
22160;SDS011;49035;48.812;11.762;2022-11-25T11:49:04;12.83;;;7.77;;
22160;SDS011;49035;48.812;11.762;2022-11-25T11:54:34;11.93;;;7.40;;
22160;SDS011;49035;48.812;11.762;2022-11-25T11:57:29;10.43;;;7.57;;
22160;SDS011;49035;48.812;11.762;2022-11-25T12:00:05;11.33;;;7.67;;
22160;SDS011;49035;48.812;11.762;2022-11-25T12:02:42;10.53;;;7.60;;
22160;SDS011;49035;48.812;11.762;2022-11-25T12:05:32;9.80;;;7.47;;
22160;SDS011;49035;48.812;11.762;2022-11-25T12:08:21;9.30;;;6.70;;
22160;SDS011;49035;48.812;11.762;2022-11-25T12:10:55;9.43;;;6.80;;
22160;SDS011;49035;48.812;11.762;2022-11-25T12:16:14;8.73;;;6.87;;
22160;SDS011;49035;48.812;11.762;2022-11-25T12:21:51;8.30;;;6.20;;
22160;SDS011;49035;48.812;11.762;2022-11-25T12:24:37;7.77;;;6.23;;
22160;SDS011;49035;48.812;11.762;2022-11-25T12:27:16;6.13;;;5.47;;
22160;SDS011;49035;48.812;11.762;2022-11-25T12:30:04;8.15;;;5.80;;
22160;SDS011;49035;48.812;11.762;2022-11-25T12:40:32;7.53;;;5.85;;
22160;SDS011;49035;48.812;11.762;2022-11-25T12:46:43;7.00;;;4.63;;
22160;SDS011;49035;48.812;11.762;2022-11-25T12:48:53;8.07;;;5.03;;
22160;SDS011;49035;48.812;11.762;2022-11-25T12:51:28;5.40;;;4.30;;
22160;SDS011;49035;48.812;11.762;2022-11-25T12:57:13;6.65;;;3.92;;
22160;SDS011;49035;48.812;11.762;2022-11-25T13:08:02;5.30;;;4.28;;
22160;SDS011;49035;48.812;11.762;2022-11-25T13:11:07;5.32;;;3.67;;
22160;SDS011;49035;48.812;11.762;2022-11-25T13:16:17;4.70;;;4.03;;
22160;SDS011;49035;48.812;11.762;2022-11-25T13:18:43;7.75;;;4.65;;
22160;SDS011;49035;48.812;11.762;2022-11-25T13:21:10;5.55;;;4.18;;
22160;SDS011;49035;48.812;11.762;2022-11-25T13:23:51;4.25;;;3.75;;
22160;SDS011;49035;48.812;11.762;2022-11-25T13:29:52;7.10;;;4.38;;
22160;SDS011;49035;48.812;11.762;2022-11-25T13:32:02;5.10;;;3.92;;
22160;SDS011;49035;48.812;11.762;2022-11-25T13:34:48;7.53;;;3.95;;
22160;SDS011;49035;48.812;11.762;2022-11-25T13:37:47;6.38;;;3.78;;
22160;SDS011;49035;48.812;11.762;2022-11-25T13:43:04;5.53;;;3.63;;
22160;SDS011;49035;48.812;11.762;2022-11-25T13:45:43;7.32;;;4.15;;
22160;SDS011;49035;48.812;11.762;2022-11-25T13:50:46;4.93;;;4.07;;
22160;SDS011;49035;48.812;11.762;2022-11-25T13:53:18;4.38;;;3.88;;
22160;SDS011;49035;48.812;11.762;2022-11-25T13:55:47;6.30;;;4.45;;
22160;SDS011;49035;48.812;11.762;2022-11-25T14:05:59;5.20;;;3.95;;
22160;SDS011;49035;48.812;11.762;2022-11-25T14:14:23;5.60;;;3.65;;
22160;SDS011;49035;48.812;11.762;2022-11-25T14:20:16;5.57;;;4.55;;
22160;SDS011;49035;48.812;11.762;2022-11-25T14:25:51;7.53;;;4.50;;
22160;SDS011;49035;48.812;11.762;2022-11-25T14:31:10;12.15;;;6.30;;
22160;SDS011;49035;48.812;11.762;2022-11-25T14:36:23;16.23;;;8.02;;
22160;SDS011;49035;48.812;11.762;2022-11-25T14:38:58;11.45;;;6.30;;
22160;SDS011;49035;48.812;11.762;2022-11-25T14:44:50;9.98;;;5.93;;
22160;SDS011;49035;48.812;11.762;2022-11-25T14:47:22;8.18;;;5.43;;
22160;SDS011;49035;48.812;11.762;2022-11-25T14:49:57;6.40;;;5.07;;
22160;SDS011;49035;48.812;11.762;2022-11-25T14:52:27;9.30;;;5.13;;
22160;SDS011;49035;48.812;11.762;2022-11-25T14:54:56;8.30;;;5.07;;
22160;SDS011;49035;48.812;11.762;2022-11-25T14:57:24;7.35;;;4.88;;
22160;SDS011;49035;48.812;11.762;2022-11-25T14:59:53;9.05;;;5.20;;
22160;SDS011;49035;48.812;11.762;2022-11-25T15:02:34;8.05;;;5.40;;
22160;SDS011;49035;48.812;11.762;2022-11-25T15:07:34;6.97;;;5.20;;
22160;SDS011;49035;48.812;11.762;2022-11-25T15:12:55;7.15;;;5.55;;
22160;SDS011;49035;48.812;11.762;2022-11-25T15:15:21;9.60;;;6.33;;
22160;SDS011;49035;48.812;11.762;2022-11-25T15:17:49;8.55;;;5.53;;
22160;SDS011;49035;48.812;11.762;2022-11-25T15:20:18;10.20;;;5.50;;
22160;SDS011;49035;48.812;11.762;2022-11-25T15:22:47;8.30;;;6.07;;
22160;SDS011;49035;48.812;11.762;2022-11-25T15:25:15;11.13;;;5.75;;
22160;SDS011;49035;48.812;11.762;2022-11-25T15:27:47;8.43;;;6.30;;
22160;SDS011;49035;48.812;11.762;2022-11-25T15:30:24;8.48;;;5.75;;
22160;SDS011;49035;48.812;11.762;2022-11-25T15:32:51;9.57;;;6.95;;
22160;SDS011;49035;48.812;11.762;2022-11-25T15:35:19;10.48;;;7.50;;
22160;SDS011;49035;48.812;11.762;2022-11-25T15:37:50;9.47;;;7.30;;
22160;SDS011;49035;48.812;11.762;2022-11-25T15:43:02;8.45;;;6.60;;
22160;SDS011;49035;48.812;11.762;2022-11-25T15:45:52;8.67;;;6.03;;
22160;SDS011;49035;48.812;11.762;2022-11-25T15:48:39;10.53;;;6.90;;
22160;SDS011;49035;48.812;11.762;2022-11-25T15:54:06;10.38;;;6.93;;
22160;SDS011;49035;48.812;11.762;2022-11-25T15:56:38;10.60;;;7.10;;
22160;SDS011;49035;48.812;11.762;2022-11-25T16:02:02;10.73;;;7.73;;
22160;SDS011;49035;48.812;11.762;2022-11-25T16:04:48;9.57;;;7.57;;
22160;SDS011;49035;48.812;11.762;2022-11-25T16:07:19;13.50;;;8.00;;
22160;SDS011;49035;48.812;11.762;2022-11-25T16:09:50;9.57;;;7.70;;
22160;SDS011;49035;48.812;11.762;2022-11-25T16:12:16;10.25;;;7.18;;
22160;SDS011;49035;48.812;11.762;2022-11-25T16:14:41;12.38;;;7.88;;
22160;SDS011;49035;48.812;11.762;2022-11-25T16:17:10;12.00;;;8.17;;
22160;SDS011;49035;48.812;11.762;2022-11-25T16:19:38;11.73;;;7.60;;
22160;SDS011;49035;48.812;11.762;2022-11-25T16:22:14;11.03;;;7.90;;
22160;SDS011;49035;48.812;11.762;2022-11-25T16:29:47;18.33;;;8.40;;
22160;SDS011;49035;48.812;11.762;2022-11-25T16:32:20;15.57;;;8.30;;
22160;SDS011;49035;48.812;11.762;2022-11-25T16:34:48;12.93;;;8.52;;
22160;SDS011;49035;48.812;11.762;2022-11-25T16:37:14;11.27;;;8.00;;
22160;SDS011;49035;48.812;11.762;2022-11-25T16:39:40;12.27;;;8.57;;
22160;SDS011;49035;48.812;11.762;2022-11-25T16:42:06;10.47;;;8.07;;
22160;SDS011;49035;48.812;11.762;2022-11-25T16:44:39;15.75;;;8.93;;
22160;SDS011;49035;48.812;11.762;2022-11-25T16:47:08;13.77;;;9.67;;
22160;SDS011;49035;48.812;11.762;2022-11-25T16:49:34;12.27;;;9.83;;